Time;durP1;ratioP1;P1;durP2;ratioP2;P2;SDS_P1;SDS_P2;PMS_P1;PMS_P2;Temp;Humidity;BMP_temperature;BMP_pressure;BME280_temperature;BME280_humidity;BME280_pressure;Samples;Min_cycle;Max_cycle;Signal;HPM_P1;HPM_P2
2022/02/18 00:00:34;;;;;;;6.33;1.80;;;5.60;99.90;;;;;;6243681;23;20024;-81
2022/02/18 00:03:01;;;;;;;4.77;0.93;;;5.60;99.90;;;;;;6243344;23;20040;-80
2022/02/18 00:05:28;;;;;;;1.90;1.00;;;5.60;99.90;;;;;;6243723;23;20024;-81
2022/02/18 00:07:54;;;;;;;5.80;1.20;;;5.50;99.90;;;;;;6243378;23;20023;-80
2022/02/18 00:10:20;;;;;;;3.80;1.27;;;5.50;99.90;;;;;;6243601;23;20027;-81
2022/02/18 00:12:46;;;;;;;5.27;1.33;;;5.50;99.90;;;;;;6243103;23;20082;-79
2022/02/18 00:15:13;;;;;;;7.90;1.30;;;5.50;99.90;;;;;;6243594;23;20024;-79
2022/02/18 00:17:39;;;;;;;5.73;0.70;;;5.40;99.90;;;;;;6243280;23;20387;-80
2022/02/18 00:20:07;;;;;;;5.47;1.13;;;5.40;99.90;;;;;;6242766;23;20023;-79
2022/02/18 00:22:34;;;;;;;2.37;1.00;;;5.40;99.90;;;;;;6243103;23;20031;-79
2022/02/18 00:25:00;;;;;;;3.33;0.60;;;5.40;99.90;;;;;;6243259;23;20031;-78
2022/02/18 00:27:26;;;;;;;2.90;1.27;;;5.40;99.90;;;;;;6243174;23;20031;-78
2022/02/18 00:29:52;;;;;;;0.97;0.67;;;5.40;99.90;;;;;;6243022;23;20032;-78
2022/02/18 00:32:18;;;;;;;2.43;0.87;;;5.40;99.90;;;;;;6243130;23;20077;-78
2022/02/18 00:34:44;;;;;;;5.37;1.50;;;5.30;99.90;;;;;;6243352;23;20020;-78
2022/02/18 00:37:10;;;;;;;1.07;0.60;;;5.30;99.90;;;;;;6239692;23;20020;-79
2022/02/18 00:39:37;;;;;;;2.93;0.87;;;5.30;99.90;;;;;;6242799;23;20039;-79
2022/02/18 00:42:03;;;;;;;3.47;0.60;;;5.20;99.90;;;;;;6243333;23;20482;-78
2022/02/18 00:44:29;;;;;;;1.27;0.47;;;5.20;99.90;;;;;;6243624;23;20055;-78
2022/02/18 00:46:55;;;;;;;4.60;0.80;;;5.20;99.90;;;;;;6243264;23;20028;-79
2022/02/18 00:49:21;;;;;;;1.17;0.60;;;5.20;99.90;;;;;;6242983;23;20028;-79
2022/02/18 00:51:48;;;;;;;3.27;1.00;;;5.30;99.90;;;;;;6243414;23;20070;-79
2022/02/18 00:54:14;;;;;;;1.90;0.70;;;5.30;99.90;;;;;;6243534;23;20451;-79
2022/02/18 00:56:41;;;;;;;2.97;0.70;;;5.30;99.90;;;;;;6243269;23;20032;-78
2022/02/18 00:59:07;;;;;;;5.27;0.90;;;5.20;99.90;;;;;;6243127;23;20024;-79
2022/02/18 01:01:33;;;;;;;2.30;1.30;;;5.20;99.90;;;;;;6242741;23;20055;-78
2022/02/18 01:04:00;;;;;;;1.17;0.50;;;5.20;99.90;;;;;;6243517;23;20020;-78
2022/02/18 01:06:26;;;;;;;5.10;0.80;;;5.20;99.90;;;;;;6242847;23;20069;-77
2022/02/18 01:08:53;;;;;;;25.20;11.73;;;5.20;99.90;;;;;;6243732;23;20020;-79
2022/02/18 01:11:20;;;;;;;8.10;3.07;;;5.20;99.90;;;;;;6243083;23;20048;-79
2022/02/18 01:13:46;;;;;;;2.33;1.07;;;5.20;99.90;;;;;;6243409;23;20031;-79
2022/02/18 01:16:13;;;;;;;3.83;1.13;;;5.30;99.90;;;;;;6242850;23;20024;-79
2022/02/18 01:18:39;;;;;;;1.73;0.70;;;5.30;99.90;;;;;;6243673;23;20103;-78
2022/02/18 01:21:05;;;;;;;5.20;0.80;;;5.20;99.90;;;;;;6243805;23;20446;-79
2022/02/18 01:23:31;;;;;;;3.40;0.93;;;5.20;99.90;;;;;;6243197;23;20447;-78
2022/02/18 01:25:57;;;;;;;8.57;1.00;;;5.20;99.90;;;;;;6243747;23;20043;-77
2022/02/18 01:28:23;;;;;;;3.00;1.17;;;5.20;99.90;;;;;;6243909;23;20031;-77
2022/02/18 01:30:50;;;;;;;5.10;0.97;;;5.20;99.90;;;;;;6244001;23;20462;-78
2022/02/18 01:33:15;;;;;;;1.90;1.00;;;5.20;99.90;;;;;;6238085;23;20457;-78
2022/02/18 01:35:42;;;;;;;0.70;0.50;;;5.20;99.90;;;;;;6243868;23;20028;-77
2022/02/18 01:38:08;;;;;;;11.23;1.13;;;5.10;99.90;;;;;;6244407;23;20016;-78
2022/02/18 01:40:34;;;;;;;4.77;0.90;;;5.00;99.90;;;;;;6246647;23;20031;-77
2022/02/18 01:43:00;;;;;;;2.87;0.57;;;5.10;99.90;;;;;;6244281;23;20028;-79
2022/02/18 01:45:26;;;;;;;3.90;0.80;;;5.10;99.90;;;;;;6243888;23;20044;-78
2022/02/18 01:47:55;;;;;;;3.10;1.03;;;5.10;99.90;;;;;;6244578;23;20078;-79
2022/02/18 01:50:21;;;;;;;3.67;1.00;;;5.10;99.90;;;;;;6245510;23;20020;-77
2022/02/18 01:52:50;;;;;;;4.17;1.10;;;5.10;99.90;;;;;;6245794;23;20043;-80
2022/02/18 01:55:17;;;;;;;24.37;11.27;;;5.00;99.90;;;;;;6246828;23;20470;-79
2022/02/18 01:57:46;;;;;;;93.53;44.90;;;5.00;99.90;;;;;;6245960;23;20351;-77
2022/02/18 02:00:13;;;;;;;2.53;1.37;;;5.00;99.90;;;;;;6244270;23;20028;-79
2022/02/18 02:02:40;;;;;;;1.80;1.13;;;5.00;99.90;;;;;;6244629;23;20028;-79
2022/02/18 02:05:08;;;;;;;6.93;1.70;;;5.00;99.90;;;;;;6243947;23;20028;-79
2022/02/18 02:07:35;;;;;;;4.40;0.87;;;5.00;99.90;;;;;;6244291;23;20024;-80
2022/02/18 02:10:01;;;;;;;3.83;0.90;;;5.10;99.90;;;;;;6244599;23;20021;-80
2022/02/18 02:12:27;;;;;;;3.30;0.67;;;5.00;99.90;;;;;;6245989;23;20028;-79
2022/02/18 02:14:53;;;;;;;1.27;0.93;;;5.10;99.90;;;;;;6245980;23;20398;-78
2022/02/18 02:17:19;;;;;;;2.90;0.70;;;5.10;99.90;;;;;;6245567;23;20056;-79
2022/02/18 02:19:45;;;;;;;1.07;0.40;;;5.10;99.90;;;;;;6245225;23;20351;-78
2022/02/18 02:22:14;;;;;;;3.97;0.87;;;5.00;99.90;;;;;;6245359;23;20086;-80
2022/02/18 02:24:41;;;;;;;7.73;0.93;;;5.00;99.90;;;;;;6243563;23;20020;-79
2022/02/18 02:27:07;;;;;;;7.17;1.40;;;5.00;99.90;;;;;;6243810;23;20031;-79
2022/02/18 02:29:32;;;;;;;4.90;1.93;;;5.00;99.90;;;;;;6242870;23;20384;-79
2022/02/18 02:31:58;;;;;;;2.30;1.13;;;5.00;99.90;;;;;;6243348;23;20455;-79
2022/02/18 02:34:24;;;;;;;0.83;0.80;;;5.00;99.90;;;;;;6241318;22;20324;-79
2022/02/18 02:36:50;;;;;;;3.37;0.53;;;5.00;99.90;;;;;;6244236;23;20028;-80
2022/02/18 02:39:16;;;;;;;13.37;1.10;;;4.90;99.90;;;;;;6243181;23;20727;-78
2022/02/18 02:41:43;;;;;;;3.10;0.67;;;4.90;99.90;;;;;;6244183;23;20052;-79
2022/02/18 02:44:09;;;;;;;7.00;1.00;;;5.00;99.90;;;;;;6250714;23;20031;-79
2022/02/18 02:46:36;;;;;;;0.90;0.33;;;4.90;99.90;;;;;;6248544;23;20032;-79
2022/02/18 02:49:02;;;;;;;2.70;0.97;;;5.00;99.90;;;;;;6243292;23;20016;-79
2022/02/18 02:51:28;;;;;;;1.90;0.40;;;5.00;99.90;;;;;;6242517;23;20024;-79
2022/02/18 02:53:54;;;;;;;2.07;0.70;;;4.90;99.90;;;;;;6238764;23;20444;-80
2022/02/18 02:56:20;;;;;;;1.50;0.60;;;4.90;99.90;;;;;;6241997;23;20028;-79
2022/02/18 02:58:49;;;;;;;2.67;0.63;;;4.90;99.90;;;;;;6242027;23;20031;-79
2022/02/18 03:01:15;;;;;;;3.33;0.60;;;4.90;99.90;;;;;;6242400;23;20031;-80
2022/02/18 03:03:41;;;;;;;2.70;0.93;;;5.00;99.90;;;;;;6242409;23;20024;-78
2022/02/18 03:06:06;;;;;;;1.03;0.57;;;4.90;99.90;;;;;;6242222;23;20024;-79
2022/02/18 03:08:32;;;;;;;1.90;0.40;;;4.80;99.90;;;;;;6242132;23;20023;-78
2022/02/18 03:11:16;;;;;;;5.20;1.27;;;4.80;99.90;;;;;;6242264;23;20336;-78
2022/02/18 03:13:43;;;;;;;3.90;0.60;;;4.90;99.90;;;;;;6242494;23;20032;-78
2022/02/18 03:16:10;;;;;;;2.20;1.03;;;4.90;99.90;;;;;;6242147;23;20017;-77
2022/02/18 03:18:36;;;;;;;1.03;0.73;;;4.90;99.90;;;;;;6242151;23;20029;-77
2022/02/18 03:21:02;;;;;;;1.37;1.10;;;4.80;99.90;;;;;;6242062;23;20038;-79
2022/02/18 03:23:28;;;;;;;3.80;0.73;;;4.80;99.90;;;;;;6242918;23;20024;-78
2022/02/18 03:25:54;;;;;;;2.67;0.50;;;4.80;99.90;;;;;;6241921;23;20070;-80
2022/02/18 03:28:20;;;;;;;6.90;1.33;;;4.80;99.90;;;;;;6242807;23;20095;-79
2022/02/18 03:30:46;;;;;;;1.80;0.77;;;4.80;99.90;;;;;;6244870;23;20027;-79
2022/02/18 03:33:12;;;;;;;1.03;0.50;;;4.70;99.90;;;;;;6244883;23;20074;-79
2022/02/18 03:35:38;;;;;;;5.97;1.27;;;4.70;99.90;;;;;;6244360;23;20039;-79
2022/02/18 03:38:04;;;;;;;3.13;2.87;;;4.70;99.90;;;;;;6243658;23;20024;-78
2022/02/18 03:40:31;;;;;;;1.43;0.93;;;4.70;99.90;;;;;;6244047;23;20450;-79
2022/02/18 03:42:57;;;;;;;3.27;0.83;;;4.70;99.90;;;;;;6243665;23;20079;-78
2022/02/18 03:45:23;;;;;;;3.37;1.50;;;4.60;99.90;;;;;;6243984;23;20063;-78
2022/02/18 03:47:49;;;;;;;1.17;0.83;;;4.60;99.90;;;;;;6243550;23;20020;-78
2022/02/18 03:50:15;;;;;;;6.43;0.83;;;4.60;99.90;;;;;;6243805;23;20024;-79
2022/02/18 03:52:42;;;;;;;5.93;0.63;;;4.60;99.90;;;;;;6243354;23;20031;-77
2022/02/18 03:55:08;;;;;;;2.17;0.80;;;4.60;99.90;;;;;;6243724;23;20031;-79
2022/02/18 03:57:34;;;;;;;3.97;0.70;;;4.60;99.90;;;;;;6244325;23;20020;-79
2022/02/18 04:00:00;;;;;;;7.07;1.37;;;4.60;99.90;;;;;;6244703;23;20490;-79
2022/02/18 04:02:26;;;;;;;2.07;0.77;;;4.60;99.90;;;;;;6244523;23;20032;-79
2022/02/18 04:04:53;;;;;;;2.83;0.90;;;4.60;99.90;;;;;;6244994;23;20027;-79
2022/02/18 04:07:20;;;;;;;2.20;1.10;;;4.70;99.90;;;;;;6244159;23;20024;-79
2022/02/18 04:09:46;;;;;;;3.30;0.80;;;4.60;99.90;;;;;;6244817;23;20091;-78
2022/02/18 04:12:12;;;;;;;2.57;0.57;;;4.60;99.90;;;;;;6246027;23;20067;-80
2022/02/18 04:14:37;;;;;;;2.03;0.50;;;4.60;99.90;;;;;;6246166;23;20024;-79
2022/02/18 04:17:04;;;;;;;5.13;0.60;;;4.60;99.90;;;;;;6245988;23;20031;-78
2022/02/18 04:19:32;;;;;;;2.73;1.23;;;4.50;99.90;;;;;;6245606;23;20055;-79
2022/02/18 04:22:02;;;;;;;2.50;0.50;;;4.50;99.90;;;;;;6245059;23;20108;-78
2022/02/18 04:24:29;;;;;;;2.43;1.00;;;4.50;99.90;;;;;;6245138;23;20489;-79
2022/02/18 04:26:55;;;;;;;3.03;1.13;;;4.40;99.90;;;;;;6244707;23;20031;-78
2022/02/18 04:29:21;;;;;;;2.77;0.80;;;4.40;99.90;;;;;;6242197;23;20024;-79
2022/02/18 04:31:47;;;;;;;1.97;0.80;;;4.50;99.90;;;;;;6243954;23;20031;-78
2022/02/18 04:34:13;;;;;;;6.53;1.23;;;4.60;99.90;;;;;;6243306;23;20032;-78
2022/02/18 04:36:40;;;;;;;1.10;0.70;;;4.50;99.90;;;;;;6244516;23;20031;-79
2022/02/18 04:39:06;;;;;;;7.27;1.13;;;4.50;99.90;;;;;;6245459;23;20020;-79
2022/02/18 04:41:37;;;;;;;4.27;2.47;;;4.50;99.90;;;;;;6243850;23;20035;-80
2022/02/18 04:44:04;;;;;;;4.87;1.27;;;4.40;99.90;;;;;;6243456;23;20032;-79
2022/02/18 04:46:30;;;;;;;2.60;1.27;;;4.40;99.90;;;;;;6243248;23;20032;-79
2022/02/18 04:48:56;;;;;;;4.50;1.00;;;4.40;99.90;;;;;;6243701;23;20024;-79
2022/02/18 04:51:22;;;;;;;1.83;1.37;;;4.40;99.90;;;;;;6244133;23;20369;-79
2022/02/18 04:53:48;;;;;;;6.33;1.30;;;4.30;99.90;;;;;;6244186;23;20042;-79
2022/02/18 04:56:13;;;;;;;2.90;1.07;;;4.30;99.90;;;;;;6243047;23;20032;-79
2022/02/18 04:58:40;;;;;;;1.70;1.10;;;4.30;99.90;;;;;;6246244;23;20085;-79
2022/02/18 05:01:09;;;;;;;1.00;0.70;;;4.20;99.90;;;;;;6247916;23;20435;-79
2022/02/18 05:03:36;;;;;;;3.43;0.67;;;4.20;99.90;;;;;;6245259;23;20024;-80
2022/02/18 05:06:02;;;;;;;3.03;1.00;;;4.20;99.90;;;;;;6243835;23;20039;-79
2022/02/18 05:08:28;;;;;;;1.80;0.80;;;4.30;99.90;;;;;;6246313;23;20335;-80
2022/02/18 05:10:54;;;;;;;7.53;1.30;;;4.20;99.90;;;;;;6244574;23;20024;-80
2022/02/18 05:13:20;;;;;;;1.03;0.70;;;4.30;99.90;;;;;;6243893;23;20035;-79
2022/02/18 05:15:47;;;;;;;2.07;1.00;;;4.20;99.90;;;;;;6244463;23;20375;-78
2022/02/18 05:18:13;;;;;;;5.20;1.00;;;4.10;99.90;;;;;;6246238;23;20091;-78
2022/02/18 05:20:39;;;;;;;7.10;1.17;;;4.10;99.90;;;;;;6244492;23;20024;-78
2022/02/18 05:23:05;;;;;;;0.57;0.57;;;4.20;99.90;;;;;;6244053;23;20121;-80
2022/02/18 05:25:32;;;;;;;1.50;0.70;;;4.20;99.90;;;;;;6243467;23;20024;-79
2022/02/18 05:27:58;;;;;;;5.07;1.33;;;4.20;99.90;;;;;;6243561;23;20024;-79
2022/02/18 05:30:24;;;;;;;3.17;0.77;;;4.10;99.90;;;;;;6244361;23;20446;-79
2022/02/18 05:32:50;;;;;;;4.90;1.10;;;4.10;99.90;;;;;;6246114;23;20032;-78
2022/02/18 05:35:16;;;;;;;3.03;0.93;;;4.00;99.90;;;;;;6248228;23;20024;-81
2022/02/18 05:37:42;;;;;;;2.77;1.30;;;4.10;99.90;;;;;;6250933;23;20478;-79
2022/02/18 05:40:10;;;;;;;6.43;1.30;;;4.00;99.90;;;;;;6255607;23;20111;-77
2022/02/18 05:42:37;;;;;;;3.50;0.80;;;4.00;99.90;;;;;;6254178;22;20024;-78
2022/02/18 05:45:03;;;;;;;0.77;0.77;;;4.00;99.90;;;;;;6253821;23;20098;-79
2022/02/18 05:47:33;;;;;;;3.30;1.10;;;4.00;99.90;;;;;;6254028;23;20027;-79
2022/02/18 05:50:00;;;;;;;5.10;1.10;;;4.10;99.90;;;;;;6254503;23;20027;-79
2022/02/18 05:52:26;;;;;;;0.97;0.50;;;4.00;99.90;;;;;;6256728;23;20028;-81
2022/02/18 05:54:52;;;;;;;6.47;1.10;;;4.00;99.90;;;;;;6256535;23;20086;-79
2022/02/18 05:57:18;;;;;;;2.60;0.90;;;4.00;99.90;;;;;;6249856;23;20394;-79
2022/02/18 05:59:44;;;;;;;3.87;0.80;;;4.00;99.90;;;;;;6240683;23;20500;-79
2022/02/18 06:02:10;;;;;;;3.57;0.93;;;3.90;99.90;;;;;;6241499;23;20031;-80
2022/02/18 06:04:36;;;;;;;6.37;1.80;;;3.80;99.90;;;;;;6245140;23;20099;-78
2022/02/18 06:07:03;;;;;;;0.77;0.70;;;3.70;99.90;;;;;;6247103;23;20051;-79
2022/02/18 06:09:29;;;;;;;6.67;1.63;;;3.80;99.90;;;;;;6218923;23;20340;-83
2022/02/18 06:11:55;;;;;;;5.50;1.67;;;3.70;99.90;;;;;;6246164;23;20039;-79
2022/02/18 06:14:21;;;;;;;4.97;2.33;;;3.70;99.90;;;;;;6247552;23;20455;-78
2022/02/18 06:16:47;;;;;;;4.27;1.50;;;3.80;99.90;;;;;;6247502;23;20020;-77
2022/02/18 06:19:14;;;;;;;3.63;1.40;;;3.80;99.90;;;;;;6247199;23;20074;-79
2022/02/18 06:21:40;;;;;;;1.87;1.00;;;3.70;99.90;;;;;;6250039;23;20020;-78
2022/02/18 06:24:07;;;;;;;5.00;1.47;;;3.70;99.90;;;;;;6254406;23;20481;-78
2022/02/18 06:26:33;;;;;;;10.57;8.07;;;3.70;99.90;;;;;;6249253;23;20085;-83
2022/02/18 06:28:59;;;;;;;7.70;1.57;;;3.70;99.90;;;;;;6253433;23;20431;-79
2022/02/18 06:31:25;;;;;;;5.17;1.30;;;3.80;99.90;;;;;;6250796;23;20053;-80
2022/02/18 06:33:51;;;;;;;1.07;0.83;;;3.90;99.90;;;;;;6250818;23;20335;-80
2022/02/18 06:36:17;;;;;;;6.77;1.67;;;4.00;99.90;;;;;;6251412;23;20473;-78
2022/02/18 06:38:44;;;;;;;5.87;1.23;;;4.10;99.90;;;;;;6250218;23;20028;-80
2022/02/18 06:41:11;;;;;;;4.83;1.83;;;4.20;99.90;;;;;;6248346;23;20403;-78
2022/02/18 06:43:38;;;;;;;4.57;1.13;;;4.30;99.90;;;;;;6255680;23;20031;-77
2022/02/18 06:46:04;;;;;;;4.80;1.50;;;4.30;99.90;;;;;;6259756;23;20024;-78
2022/02/18 06:48:30;;;;;;;3.90;1.20;;;4.30;99.90;;;;;;6257383;23;20023;-78
2022/02/18 06:50:56;;;;;;;9.40;2.07;;;4.30;99.90;;;;;;6262783;22;20024;-80
2022/02/18 06:53:22;;;;;;;5.70;1.30;;;4.20;99.90;;;;;;6251263;22;20035;-78
2022/02/18 06:55:49;;;;;;;2.60;1.10;;;4.30;99.90;;;;;;6247413;22;20032;-78
2022/02/18 06:58:16;;;;;;;5.17;1.10;;;4.20;99.90;;;;;;6241765;22;20054;-81
2022/02/18 07:00:42;;;;;;;1.37;1.20;;;4.10;99.90;;;;;;6239269;22;20436;-80
2022/02/18 07:03:08;;;;;;;3.23;1.20;;;4.10;99.90;;;;;;6234826;22;20031;-78
2022/02/18 07:05:35;;;;;;;4.23;2.03;;;4.20;99.90;;;;;;6230488;22;20074;-80
2022/02/18 07:08:01;;;;;;;8.13;3.00;;;4.40;99.90;;;;;;6237080;23;20479;-84
2022/02/18 07:10:27;;;;;;;6.47;2.07;;;4.60;99.90;;;;;;6240626;23;20024;-80
2022/02/18 07:12:53;;;;;;;4.40;1.80;;;4.90;99.90;;;;;;6235530;23;20028;-80
2022/02/18 07:15:20;;;;;;;9.20;6.20;;;5.20;99.90;;;;;;6229428;22;20339;-81
2022/02/18 07:17:46;;;;;;;17.70;8.57;;;5.60;99.90;;;;;;6229071;22;20533;-82
2022/02/18 07:20:14;;;;;;;10.17;6.70;;;5.90;99.90;;;;;;6204917;23;20024;-81
2022/02/18 07:22:42;;;;;;;12.03;5.47;;;6.30;99.90;;;;;;6236075;23;20024;-86
2022/02/18 07:25:08;;;;;;;11.07;3.57;;;6.70;99.90;;;;;;6211175;23;20055;-84
2022/02/18 07:27:35;;;;;;;7.20;1.90;;;7.10;99.90;;;;;;6239158;23;20024;-83
2022/02/18 07:30:01;;;;;;;5.70;2.93;;;6.80;99.90;;;;;;6211917;23;20147;-81
2022/02/18 07:32:28;;;;;;;2.40;2.20;;;6.70;99.90;;;;;;6240383;23;20028;-81
2022/02/18 07:34:54;;;;;;;3.50;2.20;;;6.80;99.90;;;;;;6240321;23;20031;-79
2022/02/18 07:37:20;;;;;;;4.70;2.97;;;6.90;99.90;;;;;;6238376;23;20020;-81
2022/02/18 07:39:46;;;;;;;3.00;1.87;;;6.80;99.90;;;;;;6238187;23;20028;-81
2022/02/18 07:42:12;;;;;;;2.73;2.37;;;6.90;99.90;;;;;;6238156;23;20088;-80
2022/02/18 07:44:38;;;;;;;6.23;2.83;;;6.80;99.90;;;;;;6235181;23;20024;-85
2022/02/18 07:47:05;;;;;;;3.07;1.97;;;7.20;99.90;;;;;;6239761;23;20062;-83
2022/02/18 07:49:32;;;;;;;2.53;1.67;;;7.60;99.90;;;;;;6241504;23;20020;-82
2022/02/18 07:51:58;;;;;;;4.22;2.50;;;7.80;99.90;;;;;;6238786;23;20024;-81
2022/02/18 07:54:24;;;;;;;2.93;2.30;;;8.10;99.90;;;;;;6240699;23;20020;-81
2022/02/18 07:56:50;;;;;;;2.88;1.77;;;7.80;99.90;;;;;;6240527;23;20115;-92
2022/02/18 07:59:16;;;;;;;3.08;2.40;;;8.20;99.90;;;;;;6242678;23;20327;-79
2022/02/18 08:01:42;;;;;;;6.05;2.78;;;8.40;99.90;;;;;;6239916;23;20024;-82
2022/02/18 08:04:08;;;;;;;7.88;2.95;;;8.40;99.90;;;;;;6241400;23;20028;-82
2022/02/18 08:06:35;;;;;;;3.30;2.33;;;8.60;99.90;;;;;;6237863;23;20032;-77
2022/02/18 08:09:01;;;;;;;6.47;3.30;;;8.80;99.90;;;;;;6238682;23;20354;-79
2022/02/18 08:11:27;;;;;;;5.53;2.67;;;9.40;99.90;;;;;;6238090;23;20320;-79
2022/02/18 08:13:53;;;;;;;7.38;3.30;;;8.90;99.90;;;;;;6238411;23;20028;-80
2022/02/18 08:16:19;;;;;;;5.43;3.03;;;8.10;99.90;;;;;;6237455;23;20024;-80
2022/02/18 08:18:45;;;;;;;4.30;2.85;;;7.80;99.90;;;;;;6239078;23;20032;-81
2022/02/18 08:21:13;;;;;;;4.27;2.70;;;7.40;99.90;;;;;;6239483;23;20035;-80
2022/02/18 08:23:41;;;;;;;5.83;3.17;;;7.30;99.90;;;;;;6239355;23;20306;-80
2022/02/18 08:26:07;;;;;;;3.10;2.27;;;7.60;99.90;;;;;;6240212;23;20032;-78
2022/02/18 08:28:33;;;;;;;5.40;2.50;;;7.60;99.90;;;;;;6244371;23;20024;-79
2022/02/18 08:30:59;;;;;;;2.93;2.13;;;7.50;99.90;;;;;;6243671;23;20024;-79
2022/02/18 08:33:26;;;;;;;16.83;6.30;;;7.60;99.90;;;;;;6243530;23;20020;-81
2022/02/18 08:35:51;;;;;;;18.53;11.27;;;7.90;99.90;;;;;;6242727;23;20031;-81
2022/02/18 08:38:18;;;;;;;7.13;2.87;;;8.00;99.90;;;;;;6243347;23;20024;-79
2022/02/18 08:40:44;;;;;;;5.23;2.80;;;8.00;99.90;;;;;;6243087;23;20481;-77
2022/02/18 08:43:10;;;;;;;3.33;2.45;;;8.00;99.90;;;;;;6243906;23;20032;-80
2022/02/18 08:45:36;;;;;;;7.27;3.00;;;8.00;99.90;;;;;;6244714;23;20324;-80
2022/02/18 08:48:03;;;;;;;12.50;6.28;;;8.30;99.90;;;;;;6243455;23;20031;-80
2022/02/18 08:50:29;;;;;;;7.40;2.60;;;8.50;99.90;;;;;;6247450;23;20023;-82
2022/02/18 08:52:55;;;;;;;3.35;1.83;;;8.50;99.90;;;;;;6246754;23;20031;-80
2022/02/18 08:55:24;;;;;;;8.73;5.25;;;8.60;99.90;;;;;;6254290;23;20389;-82
2022/02/18 08:57:51;;;;;;;2.20;2.08;;;8.90;99.90;;;;;;6244084;23;20386;-85
2022/02/18 09:00:18;;;;;;;6.63;2.80;;;9.20;99.90;;;;;;6245413;23;20016;-85
2022/02/18 09:02:44;;;;;;;3.88;2.15;;;9.50;99.90;;;;;;6239034;23;20454;-85
2022/02/18 09:05:11;;;;;;;3.13;2.17;;;9.50;99.90;;;;;;6245121;23;20024;-83
2022/02/18 09:07:39;;;;;;;6.63;3.42;;;9.50;99.90;;;;;;6244887;23;20024;-80
2022/02/18 09:10:07;;;;;;;8.43;3.03;;;9.60;99.90;;;;;;6243504;23;20016;-82
2022/02/18 09:12:37;;;;;;;3.92;2.15;;;9.90;99.90;;;;;;6243878;23;20024;-81
2022/02/18 09:15:05;;;;;;;8.68;2.25;;;10.30;99.90;;;;;;6241824;23;20428;-82
2022/02/18 09:17:31;;;;;;;3.88;2.00;;;9.90;99.90;;;;;;6217055;23;20039;-77
2022/02/18 09:19:58;;;;;;;6.93;3.05;;;9.60;99.90;;;;;;6243787;23;20330;-78
2022/02/18 09:22:24;;;;;;;6.53;4.05;;;9.40;99.90;;;;;;6243209;23;20110;-78
2022/02/18 09:24:50;;;;;;;4.20;2.90;;;9.50;99.90;;;;;;6247884;23;20035;-81
2022/02/18 09:27:16;;;;;;;4.75;2.47;;;9.30;99.90;;;;;;6225544;23;20078;-81
2022/02/18 09:29:42;;;;;;;8.48;2.97;;;9.10;99.90;;;;;;6245552;23;20028;-82
2022/02/18 09:32:09;;;;;;;5.97;2.67;;;8.90;99.90;;;;;;6243939;23;20088;-82
2022/02/18 09:34:36;;;;;;;6.45;3.17;;;8.90;99.90;;;;;;6243650;23;20020;-82
2022/02/18 09:37:04;;;;;;;5.00;2.58;;;9.20;99.90;;;;;;6243240;23;20423;-83
2022/02/18 09:39:31;;;;;;;8.32;3.35;;;9.20;99.90;;;;;;6243275;23;20020;-84
2022/02/18 09:41:57;;;;;;;4.88;3.33;;;9.30;99.90;;;;;;6244741;23;20024;-80
2022/02/18 09:44:25;;;;;;;5.82;2.30;;;9.20;99.90;;;;;;6244928;23;20016;-83
2022/02/18 09:46:52;;;;;;;6.40;2.75;;;9.10;99.90;;;;;;6244282;23;20024;-79
2022/02/18 09:49:19;;;;;;;9.77;3.50;;;9.00;99.90;;;;;;6243047;23;20027;-83
2022/02/18 09:51:45;;;;;;;9.65;2.90;;;8.80;99.90;;;;;;6243096;23;20062;-76
2022/02/18 09:54:11;;;;;;;6.28;3.42;;;8.90;99.90;;;;;;6242745;23;20032;-80
2022/02/18 09:56:42;;;;;;;5.43;2.88;;;8.60;99.90;;;;;;6242626;23;20047;-82
2022/02/18 09:59:10;;;;;;;5.75;2.17;;;8.60;99.90;;;;;;6243023;23;20059;-81
2022/02/18 10:01:36;;;;;;;4.22;2.05;;;8.70;99.90;;;;;;6243476;23;20028;-80
2022/02/18 10:04:03;;;;;;;10.63;2.75;;;9.00;99.90;;;;;;6244294;23;20461;-82
2022/02/18 10:06:31;;;;;;;4.40;2.33;;;8.70;99.90;;;;;;6245023;23;20024;-80
2022/02/18 10:08:59;;;;;;;5.57;2.03;;;8.60;99.90;;;;;;6243603;23;20020;-79
2022/02/18 10:11:25;;;;;;;10.65;2.92;;;8.80;99.90;;;;;;6246520;23;20024;-81
2022/02/18 10:13:53;;;;;;;166.52;85.47;;;9.10;99.90;;;;;;6249025;23;20028;-78
2022/02/18 10:16:20;;;;;;;8.40;7.53;;;9.50;99.90;;;;;;6246434;23;20478;-80
2022/02/18 10:18:50;;;;;;;6.45;3.05;;;9.10;99.90;;;;;;6249180;23;20156;-78
2022/02/18 10:21:17;;;;;;;7.45;4.40;;;9.30;99.90;;;;;;6254479;23;20367;-78
2022/02/18 10:23:44;;;;;;;11.48;5.97;;;9.50;99.90;;;;;;6263893;23;20024;-78
2022/02/18 10:26:10;;;;;;;8.15;2.55;;;9.70;99.90;;;;;;6262494;23;20030;-80
2022/02/18 10:28:55;;;;;;;5.63;2.30;;;9.30;99.90;;;;;;6262850;23;20016;-79
2022/02/18 10:31:21;;;;;;;4.20;1.67;;;8.80;99.90;;;;;;6257187;23;20790;-80
2022/02/18 10:34:06;;;;;;;3.40;2.13;;;8.70;99.90;;;;;;6261164;23;20158;-78
2022/02/18 10:36:39;;;;;;;6.75;2.20;;;8.70;99.90;;;;;;6260790;23;20044;-77
2022/02/18 10:39:28;;;;;;;5.25;1.50;;;8.70;99.90;;;;;;6264273;23;20016;-82
2022/02/18 10:42:04;;;;;;;4.90;1.70;;;8.70;99.90;;;;;;6262633;23;20064;-81
2022/02/18 10:44:34;;;;;;;4.15;1.70;;;8.60;99.90;;;;;;6262941;23;20046;-79
2022/02/18 10:47:05;;;;;;;2.70;1.58;;;8.80;99.90;;;;;;6251374;23;20031;-78
2022/02/18 10:49:43;;;;;;;4.50;1.92;;;8.70;99.90;;;;;;6240195;23;20038;-78
2022/02/18 10:52:14;;;;;;;5.10;1.52;;;8.80;99.90;;;;;;6242112;23;20039;-81
2022/02/18 10:54:41;;;;;;;5.65;1.48;;;8.70;99.90;;;;;;6242768;23;20020;-84
2022/02/18 10:57:18;;;;;;;26.65;15.93;;;8.60;99.90;;;;;;6242303;23;20090;-80
2022/02/18 10:59:47;;;;;;;2.22;2.13;;;8.60;99.90;;;;;;6237871;23;20071;-80
2022/02/18 11:02:15;;;;;;;10.07;2.10;;;8.70;99.90;;;;;;6242159;23;20031;-79
2022/02/18 11:04:41;;;;;;;2.60;1.95;;;8.70;99.90;;;;;;6241963;23;20540;-80
2022/02/18 11:07:12;;;;;;;4.85;1.58;;;8.60;99.90;;;;;;6241555;23;20031;-78
2022/02/18 11:09:39;;;;;;;4.30;1.63;;;8.40;99.90;;;;;;6241774;23;20028;-78
2022/02/18 11:12:16;;;;;;;2.15;1.75;;;8.30;99.90;;;;;;6241603;23;20031;-80
2022/02/18 11:14:46;;;;;;;4.70;1.75;;;8.30;99.90;;;;;;6241124;23;20024;-81
2022/02/18 11:17:13;;;;;;;4.07;1.57;;;8.30;99.90;;;;;;6241397;23;20498;-79
2022/02/18 11:19:42;;;;;;;3.30;1.65;;;8.30;99.90;;;;;;6240872;23;20028;-79
2022/02/18 11:22:09;;;;;;;6.25;2.42;;;8.30;99.90;;;;;;6240904;23;20512;-81
2022/02/18 11:24:35;;;;;;;2.60;1.60;;;8.20;99.90;;;;;;6241626;23;20376;-80
2022/02/18 11:27:03;;;;;;;2.95;1.83;;;8.30;99.90;;;;;;6241278;23;20513;-80
2022/02/18 11:29:35;;;;;;;5.68;1.58;;;8.20;99.90;;;;;;6241116;23;20028;-80
2022/02/18 11:32:06;;;;;;;2.67;1.55;;;8.30;99.90;;;;;;6241756;23;20047;-79
2022/02/18 11:34:50;;;;;;;5.68;1.65;;;8.20;99.90;;;;;;6242261;23;20486;-80
2022/02/18 11:37:51;;;;;;;2.78;1.10;;;8.20;99.90;;;;;;6241593;23;20028;-79
2022/02/18 11:40:42;;;;;;;1.70;1.23;;;8.20;99.90;;;;;;6241468;23;20020;-80
2022/02/18 11:43:25;;;;;;;1.80;0.82;;;8.10;99.90;;;;;;6241487;23;20031;-78
2022/02/18 11:45:57;;;;;;;4.35;2.20;;;8.00;99.90;;;;;;6242100;23;20027;-78
2022/02/18 11:48:37;;;;;;;4.53;1.20;;;7.70;99.90;;;;;;6237625;23;20044;-78
2022/02/18 11:51:08;;;;;;;2.20;1.10;;;7.40;99.90;;;;;;6242341;23;20024;-78
2022/02/18 11:53:42;;;;;;;1.83;1.53;;;7.10;99.90;;;;;;6243196;23;20024;-77
2022/02/18 11:56:08;;;;;;;1.80;0.80;;;6.90;99.90;;;;;;6242867;23;20078;-79
2022/02/18 11:59:00;;;;;;;2.10;1.00;;;6.80;99.90;;;;;;6236486;23;20339;-79
2022/02/18 12:01:44;;;;;;;;;;;6.80;99.90;;;;;;6243164;23;20024;-78
2022/02/18 12:04:18;;;;;;;3.80;1.40;;;6.70;99.90;;;;;;6242361;23;20216;-77
2022/02/18 12:07:22;;;;;;;1.27;1.17;;;6.50;99.90;;;;;;6237148;23;20032;-78
2022/02/18 12:10:13;;;;;;;2.97;1.70;;;6.50;99.90;;;;;;6241975;23;20039;-78
2022/02/18 12:12:41;;;;;;;3.57;1.50;;;6.60;99.90;;;;;;6237265;23;20028;-78
2022/02/18 12:15:12;;;;;;;4.30;2.20;;;6.50;99.90;;;;;;6243213;23;20055;-79
2022/02/18 12:17:41;;;;;;;3.47;1.67;;;6.60;99.90;;;;;;6238039;23;20098;-78
2022/02/18 12:20:13;;;;;;;6.07;1.57;;;6.60;99.90;;;;;;6242933;23;20055;-80
2022/02/18 12:22:40;;;;;;;2.20;1.33;;;6.60;99.90;;;;;;6243010;23;20347;-79
2022/02/18 12:25:08;;;;;;;2.67;1.70;;;6.60;99.90;;;;;;6242988;23;20031;-78
2022/02/18 12:27:37;;;;;;;1.43;1.03;;;6.60;99.90;;;;;;6242774;23;20039;-79
2022/02/18 12:30:40;;;;;;;2.63;1.83;;;6.50;99.90;;;;;;6242640;23;20447;-78
2022/02/18 12:33:06;;;;;;;1.13;0.97;;;6.60;99.90;;;;;;6241740;23;20024;-78
2022/02/18 12:35:34;;;;;;;5.30;1.50;;;6.60;99.90;;;;;;6238583;23;20028;-77
2022/02/18 12:38:05;;;;;;;4.47;1.60;;;6.60;99.90;;;;;;6242650;23;20066;-78
2022/02/18 12:40:37;;;;;;;2.92;1.40;;;6.50;99.90;;;;;;6242629;23;20308;-78
2022/02/18 12:43:06;;;;;;;2.65;1.23;;;6.60;99.90;;;;;;6242574;23;20032;-78
2022/02/18 12:45:41;;;;;;;1.17;1.10;;;6.70;99.90;;;;;;6242891;23;20027;-79
2022/02/18 12:48:08;;;;;;;2.00;1.10;;;6.70;99.90;;;;;;6242818;23;20024;-77
2022/02/18 12:50:37;;;;;;;2.10;1.63;;;6.80;99.90;;;;;;6242704;23;20024;-78
2022/02/18 12:53:03;;;;;;;1.17;1.03;;;6.80;99.90;;;;;;6242963;23;20937;-79
2022/02/18 12:55:31;;;;;;;2.20;2.00;;;6.80;99.90;;;;;;6242857;23;20024;-79
2022/02/18 12:57:57;;;;;;;1.73;1.23;;;6.80;99.90;;;;;;6240676;23;20024;-77